Time;durP1;ratioP1;P1;durP2;ratioP2;P2;SDS_P1;SDS_P2;PMS_P1;PMS_P2;Temp;Humidity;BMP_temperature;BMP_pressure;BME280_temperature;BME280_humidity;BME280_pressure;Samples;Min_cycle;Max_cycle;Signal;HPM_P1;HPM_P2
2021/09/03 00:00:09;;;;;;;3.97;1.98;;;;;;;7.88;66.53;99033.06;4986661;28;20132;-74
2021/09/03 00:02:36;;;;;;;5.00;2.03;;;;;;;7.88;66.64;99033.06;4987152;28;20113;-75
2021/09/03 00:05:04;;;;;;;6.10;2.13;;;;;;;7.88;66.69;99027.00;4985325;28;20050;-75
2021/09/03 00:07:30;;;;;;;6.53;2.80;;;;;;;7.80;67.01;99016.72;4987223;28;20034;-76
2021/09/03 00:09:56;;;;;;;4.05;2.10;;;;;;;7.83;66.69;99027.91;4988479;28;20524;-75
2021/09/03 00:12:36;;;;;;;2.88;2.03;;;;;;;7.81;66.53;99029.69;4985441;28;20069;-76
2021/09/03 00:15:03;;;;;;;6.38;1.98;;;;;;;7.64;66.90;99013.41;4973418;28;20074;-74
2021/09/03 00:17:29;;;;;;;5.55;2.50;;;;;;;7.75;66.67;99026.28;4989137;28;20038;-75
2021/09/03 00:19:54;;;;;;;6.20;2.20;;;;;;;7.67;67.17;99001.31;4971712;28;20467;-75
2021/09/03 00:22:20;;;;;;;5.90;2.10;;;;;;;7.68;66.99;99021.16;4971485;28;20040;-74
2021/09/03 00:24:46;;;;;;;5.57;2.38;;;;;;;7.67;67.10;99013.41;4985862;28;20046;-75
2021/09/03 00:27:12;;;;;;;5.03;2.40;;;;;;;7.51;67.37;99000.59;4972480;28;20081;-75
2021/09/03 00:29:37;;;;;;;5.60;2.53;;;;;;;7.52;67.37;99004.91;4969727;28;20163;-75
2021/09/03 00:32:03;;;;;;;4.47;1.95;;;;;;;7.52;67.38;99015.28;4970470;28;20538;-74
2021/09/03 00:34:29;;;;;;;4.50;1.92;;;;;;;7.39;67.34;98998.97;4967000;28;20038;-75
2021/09/03 00:36:55;;;;;;;7.00;2.03;;;;;;;7.48;67.48;99010.13;4988228;28;20406;-74
2021/09/03 00:39:21;;;;;;;6.18;1.90;;;;;;;7.41;67.41;99009.31;4987658;28;20046;-75
2021/09/03 00:41:47;;;;;;;3.80;1.92;;;;;;;7.39;67.81;99011.94;4984474;28;20084;-75
2021/09/03 00:44:13;;;;;;;5.38;2.20;;;;;;;7.29;67.73;98999.91;4970259;28;20458;-75
2021/09/03 00:46:38;;;;;;;8.57;2.67;;;;;;;7.21;67.67;98994.81;4986201;28;20384;-75
2021/09/03 00:49:04;;;;;;;9.48;2.58;;;;;;;7.30;67.65;99008.56;4951939;28;20038;-76
2021/09/03 00:51:30;;;;;;;5.63;2.33;;;;;;;7.24;67.91;98999.97;4971607;28;20373;-76
2021/09/03 00:53:56;;;;;;;4.65;2.50;;;;;;;7.27;68.22;99003.41;4985492;28;20093;-75
2021/09/03 00:56:21;;;;;;;4.78;2.38;;;;;;;7.23;68.21;98998.25;4987339;28;20057;-75
2021/09/03 00:58:47;;;;;;;4.80;2.55;;;;;;;7.20;68.31;99000.84;4986573;28;20046;-74
2021/09/03 01:01:17;;;;;;;6.68;2.85;;;;;;;7.09;68.47;98984.56;4988061;28;20057;-75
2021/09/03 01:03:43;;;;;;;8.38;2.70;;;;;;;7.05;68.55;98980.28;4966768;28;20133;-76
2021/09/03 01:06:09;;;;;;;4.68;2.70;;;;;;;7.11;68.69;98994.91;4976699;28;20583;-74
2021/09/03 01:08:35;;;;;;;6.20;2.47;;;;;;;7.03;68.44;98976.84;4978180;28;20038;-76
2021/09/03 01:11:01;;;;;;;7.10;2.50;;;;;;;7.07;69.13;98988.91;4987535;28;20046;-75
2021/09/03 01:13:28;;;;;;;4.82;2.70;;;;;;;6.95;69.05;98970.91;4978614;28;20038;-74
2021/09/03 01:15:54;;;;;;;5.72;2.10;;;;;;;6.87;68.87;98955.41;4996637;28;20044;-74
2021/09/03 01:18:19;;;;;;;5.28;3.20;;;;;;;6.86;69.32;98954.56;4973247;28;20606;-75
2021/09/03 01:20:45;;;;;;;6.95;2.75;;;;;;;6.96;69.27;98970.88;4987453;28;20053;-76
2021/09/03 01:23:13;;;;;;;7.85;4.03;;;;;;;6.96;68.96;98970.00;4982512;28;20088;-75
2021/09/03 01:25:40;;;;;;;9.07;2.80;;;;;;;6.95;69.20;98970.91;4982835;28;21070;-75
2021/09/03 01:28:06;;;;;;;5.38;2.58;;;;;;;6.81;69.31;98940.78;4985868;28;20116;-76
2021/09/03 01:30:32;;;;;;;5.47;2.83;;;;;;;6.83;69.06;98952.00;4967604;28;20045;-74
2021/09/03 01:32:57;;;;;;;6.65;2.67;;;;;;;6.78;69.13;98943.41;4967104;28;21360;-75
2021/09/03 01:35:23;;;;;;;8.85;3.00;;;;;;;6.78;69.04;98956.34;4983954;28;20034;-76
2021/09/03 01:37:49;;;;;;;6.10;2.55;;;;;;;6.82;68.96;98962.38;4968962;28;20042;-76
2021/09/03 01:40:15;;;;;;;7.18;3.10;;;;;;;6.75;69.50;98951.19;4966153;28;20096;-75
2021/09/03 01:42:41;;;;;;;8.38;3.03;;;;;;;6.81;69.45;98956.31;4984832;28;20053;-74
2021/09/03 01:45:07;;;;;;;10.25;3.20;;;;;;;6.70;69.86;98927.94;4966801;28;20050;-75
2021/09/03 01:47:33;;;;;;;7.28;3.30;;;;;;;6.79;69.78;98952.88;4985894;28;20069;-75
2021/09/03 01:49:59;;;;;;;5.82;3.22;;;;;;;6.80;69.81;98948.56;4966100;28;20557;-75
2021/09/03 01:52:24;;;;;;;13.48;3.63;;;;;;;6.71;69.70;98940.00;4982539;28;20038;-75
2021/09/03 01:54:50;;;;;;;15.38;3.83;;;;;;;6.59;69.94;98917.69;4951748;28;20597;-76
2021/09/03 01:57:16;;;;;;;9.50;3.30;;;;;;;6.72;69.70;98957.25;4986709;28;20034;-75
2021/09/03 01:59:41;;;;;;;8.27;3.90;;;;;;;6.65;70.01;98941.78;4987111;28;20100;-75
2021/09/03 02:02:08;;;;;;;10.05;3.78;;;;;;;6.59;70.12;98945.28;4985998;28;20042;-75
2021/09/03 02:04:33;;;;;;;9.77;2.97;;;;;;;6.54;70.15;98942.69;4984867;28;20042;-74
2021/09/03 02:06:59;;;;;;;7.57;3.45;;;;;;;6.54;70.40;98937.53;4966567;28;20045;-75
2021/09/03 02:09:25;;;;;;;13.57;3.78;;;;;;;6.58;70.51;98949.56;4984312;28;20069;-75
2021/09/03 02:11:51;;;;;;;9.57;3.53;;;;;;;6.55;70.57;98944.41;4972927;28;20089;-76
2021/09/03 02:14:17;;;;;;;9.43;3.00;;;;;;;6.28;70.13;98899.81;4930744;28;20395;-75
2021/09/03 02:16:43;;;;;;;12.00;3.67;;;;;;;6.47;70.31;98934.13;4985525;28;20049;-75
2021/09/03 02:19:09;;;;;;;8.50;2.88;;;;;;;6.37;70.50;98923.84;4986255;28;20042;-74
2021/09/03 02:21:34;;;;;;;12.20;3.45;;;;;;;6.41;70.33;98935.88;4975272;28;20050;-74
2021/09/03 02:24:00;;;;;;;10.52;3.33;;;;;;;6.43;70.40;98935.00;4973078;28;20046;-76
2021/09/03 02:26:26;;;;;;;9.50;3.47;;;;;;;6.32;70.39;98916.13;4972077;28;20038;-75
2021/09/03 02:28:52;;;;;;;12.27;3.55;;;;;;;6.33;70.72;98916.09;4990489;28;20460;-75
2021/09/03 02:31:18;;;;;;;9.43;3.10;;;;;;;6.44;70.56;98928.13;4988464;28;20041;-75
2021/09/03 02:33:43;;;;;;;7.97;3.13;;;;;;;6.28;71.11;98902.38;4987646;28;20503;-74
2021/09/03 02:36:09;;;;;;;8.88;2.90;;;;;;;6.35;71.13;98912.66;4988258;28;20065;-74
2021/09/03 02:38:35;;;;;;;4.82;2.85;;;;;;;6.41;71.11;98921.22;4990360;28;20038;-74
2021/09/03 02:41:01;;;;;;;6.97;2.95;;;;;;;6.40;70.74;98923.84;4985863;28;20045;-76
2021/09/03 02:43:27;;;;;;;6.78;3.60;;;;;;;6.41;71.32;98916.06;4970503;28;20042;-75
2021/09/03 02:45:53;;;;;;;7.18;3.33;;;;;;;6.37;71.06;98898.88;4989331;28;20050;-75
2021/09/03 02:48:20;;;;;;;12.00;3.50;;;;;;;6.45;71.53;98906.59;4986667;28;20076;-75
2021/09/03 02:50:47;;;;;;;12.52;3.45;;;;;;;6.36;71.22;98889.41;4987269;28;20517;-75
2021/09/03 02:53:12;;;;;;;9.48;3.40;;;;;;;6.48;71.22;98912.59;4988067;28;20510;-75
2021/09/03 02:55:38;;;;;;;10.63;3.55;;;;;;;6.48;71.14;98909.16;4964018;28;20069;-75
2021/09/03 02:58:04;;;;;;;10.63;3.40;;;;;;;6.50;71.23;98914.28;4972170;28;20065;-76
2021/09/03 03:00:29;;;;;;;11.23;3.55;;;;;;;6.49;71.72;98908.28;4972510;28;20051;-74
2021/09/03 03:02:57;;;;;;;9.95;3.42;;;;;;;6.55;71.42;98904.78;4979078;28;20037;-76
2021/09/03 03:05:24;;;;;;;9.40;3.65;;;;;;;6.53;71.44;98888.44;4991325;28;20090;-74
2021/09/03 03:07:50;;;;;;;13.45;4.53;;;;;;;6.48;71.58;98881.56;4975840;28;20125;-75
2021/09/03 03:10:16;;;;;;;8.15;3.05;;;;;;;6.60;71.85;98888.38;4969821;28;20045;-78
2021/09/03 03:12:42;;;;;;;6.30;2.63;;;;;;;6.60;71.70;98885.78;5008719;28;20062;-77
2021/09/03 03:15:09;;;;;;;7.82;2.78;;;;;;;6.69;71.46;98895.19;4992518;28;20065;-76
2021/09/03 03:17:36;;;;;;;5.93;2.60;;;;;;;6.72;72.00;98896.94;4997980;28;20371;-75
2021/09/03 03:20:02;;;;;;;6.00;2.70;;;;;;;6.76;71.73;98898.59;5000352;28;20049;-76
2021/09/03 03:22:28;;;;;;;4.78;2.05;;;;;;;6.74;72.03;98882.22;4967443;28;20038;-75
2021/09/03 03:24:54;;;;;;;8.90;2.25;;;;;;;6.85;72.03;98892.50;4980219;28;20045;-75
2021/09/03 03:27:19;;;;;;;4.35;2.40;;;;;;;6.89;71.85;98889.00;4981948;28;20076;-76
2021/09/03 03:29:45;;;;;;;7.50;2.42;;;;;;;6.93;71.68;98886.41;4945141;28;20502;-77
2021/09/03 03:32:11;;;;;;;5.50;1.95;;;;;;;6.90;71.88;98862.28;4994347;28;20137;-75
2021/09/03 03:34:37;;;;;;;5.32;2.58;;;;;;;6.91;71.71;98849.34;4977240;28;20069;-75
2021/09/03 03:37:03;;;;;;;6.30;2.72;;;;;;;7.14;71.99;98865.50;4992337;28;20046;-76
2021/09/03 03:39:28;;;;;;;4.65;2.30;;;;;;;7.13;71.75;98856.91;4975879;28;20073;-77
2021/09/03 03:41:54;;;;;;;4.47;1.83;;;;;;;7.26;71.66;98854.19;4990985;28;20057;-76
2021/09/03 03:44:20;;;;;;;4.07;2.03;;;;;;;7.24;71.55;98847.28;4990195;28;20050;-77
2021/09/03 03:46:46;;;;;;;4.30;2.13;;;;;;;7.39;72.00;98848.00;4984175;28;20046;-77
2021/09/03 03:49:12;;;;;;;4.93;2.65;;;;;;;7.50;71.63;98848.72;4993449;28;20356;-77
2021/09/03 03:51:38;;;;;;;7.25;2.35;;;;;;;7.54;71.57;98842.66;4989106;28;20057;-76
2021/09/03 03:54:05;;;;;;;6.38;2.60;;;;;;;7.69;71.64;98843.34;4976604;28;20133;-75
2021/09/03 03:56:30;;;;;;;2.83;1.98;;;;;;;7.80;71.57;98840.59;4995313;28;20176;-77
2021/09/03 03:58:56;;;;;;;4.63;2.53;;;;;;;7.83;71.30;98825.88;4978174;28;20076;-77
2021/09/03 04:01:22;;;;;;;7.32;2.38;;;;;;;7.87;71.04;98820.66;4987990;28;20248;-76
2021/09/03 04:03:48;;;;;;;6.25;2.40;;;;;;;8.06;71.12;98827.28;4972396;28;20041;-76
2021/09/03 04:06:13;;;;;;;8.88;2.67;;;;;;;8.16;71.12;98811.63;4989712;28;20152;-76
2021/09/03 04:08:39;;;;;;;7.07;3.60;;;;;;;8.25;70.86;98801.13;4986503;28;20042;-75
2021/09/03 04:11:08;;;;;;;5.18;2.97;;;;;;;8.26;70.68;98793.31;4968711;28;20069;-76
2021/09/03 04:13:33;;;;;;;6.40;2.80;;;;;;;8.47;70.32;98812.00;4953999;28;20550;-75
2021/09/03 04:15:59;;;;;;;5.25;2.55;;;;;;;8.42;70.21;98783.56;4994572;28;20129;-76
2021/09/03 04:18:25;;;;;;;5.00;3.00;;;;;;;8.60;69.98;98791.94;4992799;28;20037;-76
2021/09/03 04:20:50;;;;;;;4.38;2.42;;;;;;;8.74;69.94;98792.56;4964820;28;20046;-75
2021/09/03 04:23:16;;;;;;;3.53;2.40;;;;;;;9.13;70.26;98806.59;4990285;28;20054;-75
2021/09/03 04:25:42;;;;;;;5.80;2.67;;;;;;;9.39;70.13;98785.31;4974297;28;20050;-76
2021/09/03 04:28:08;;;;;;;6.93;3.20;;;;;;;9.86;69.70;98786.94;4979619;28;20042;-75
2021/09/03 04:30:33;;;;;;;6.65;2.95;;;;;;;10.32;68.77;98775.47;4971162;28;20048;-74
2021/09/03 04:32:59;;;;;;;5.97;2.95;;;;;;;10.62;68.15;98765.22;4957500;28;20081;-76
2021/09/03 04:35:26;;;;;;;9.07;2.90;;;;;;;10.99;67.67;98760.81;4994641;28;20068;-75
2021/09/03 04:37:53;;;;;;;7.35;3.33;;;;;;;11.20;66.97;98743.75;4941235;28;20391;-75
2021/09/03 04:40:19;;;;;;;8.40;2.90;;;;;;;11.20;66.23;98735.06;4990480;28;20050;-75
2021/09/03 04:42:45;;;;;;;5.25;3.10;;;;;;;11.10;65.46;98748.34;4972218;28;20034;-75
2021/09/03 04:45:13;;;;;;;11.15;2.30;;;;;;;11.01;65.03;98740.78;4992150;28;20130;-75
2021/09/03 04:47:49;;;;;;;3.72;2.33;;;;;;;10.72;64.76;98711.19;4991949;28;20069;-75
2021/09/03 04:50:15;;;;;;;5.45;2.22;;;;;;;10.67;64.36;98721.72;4943541;28;20520;-76
2021/09/03 04:52:41;;;;;;;4.50;2.33;;;;;;;10.59;64.75;98721.09;4974761;28;20037;-75
2021/09/03 04:55:08;;;;;;;4.13;2.08;;;;;;;10.50;64.49;98740.38;4936493;28;20102;-76
2021/09/03 04:57:47;;;;;;;3.65;2.10;;;;;;;10.42;64.62;98739.72;4975486;28;20039;-75
2021/09/03 05:00:16;;;;;;;4.72;2.15;;;;;;;10.44;64.41;98739.69;4944354;28;20035;-75
2021/09/03 05:02:43;;;;;;;4.22;2.35;;;;;;;10.28;64.56;98711.44;4962232;28;20046;-75
2021/09/03 05:05:10;;;;;;;8.25;2.88;;;;;;;10.30;64.77;98725.25;4977295;28;20038;-75
2021/09/03 05:07:36;;;;;;;5.72;2.13;;;;;;;10.31;64.39;98728.69;4940261;28;20074;-75
2021/09/03 05:10:03;;;;;;;9.63;2.45;;;;;;;10.25;64.26;98743.59;4952847;28;20038;-75
2021/09/03 05:12:29;;;;;;;5.35;2.30;;;;;;;10.24;64.49;98741.00;4942714;28;20049;-76
2021/09/03 05:14:55;;;;;;;7.07;2.70;;;;;;;10.22;64.45;98737.59;4971115;28;20050;-74
2021/09/03 05:17:21;;;;;;;4.43;2.13;;;;;;;10.14;64.85;98718.75;4978621;28;20142;-77
2021/09/03 05:19:47;;;;;;;6.30;2.20;;;;;;;10.24;65.03;98728.88;4984312;28;20163;-76
2021/09/03 05:22:13;;;;;;;5.13;2.13;;;;;;;10.22;64.63;98715.06;4958433;28;20053;-74
2021/09/03 05:24:39;;;;;;;2.75;2.25;;;;;;;10.29;64.87;98733.06;4970747;28;20552;-74
2021/09/03 05:27:04;;;;;;;6.60;2.08;;;;;;;10.36;64.86;98734.66;4925463;28;20494;-75
2021/09/03 05:29:31;;;;;;;2.55;1.80;;;;;;;10.31;64.60;98715.69;4956162;28;20047;-75
2021/09/03 05:31:56;;;;;;;8.10;1.85;;;;;;;10.40;64.58;98720.72;4973701;28;20047;-75
2021/09/03 05:34:22;;;;;;;4.47;2.00;;;;;;;10.40;64.67;98718.94;4946378;28;20096;-75
2021/09/03 05:36:48;;;;;;;3.65;1.60;;;;;;;10.25;64.17;98681.19;4970608;28;20047;-76
2021/09/03 05:39:13;;;;;;;4.65;1.77;;;;;;;10.48;64.31;98697.94;4970471;28;20064;-75
2021/09/03 05:41:39;;;;;;;3.38;1.73;;;;;;;10.65;64.03;98699.28;4938677;28;20066;-74
2021/09/03 05:44:05;;;;;;;2.17;1.70;;;;;;;10.73;64.29;98680.84;4972341;28;20058;-77
2021/09/03 05:46:32;;;;;;;4.55;2.15;;;;;;;10.95;63.70;98694.09;4972412;28;20042;-75
2021/09/03 05:48:57;;;;;;;6.55;2.10;;;;;;;11.12;63.72;98693.63;4941701;28;20093;-78
2021/09/03 05:51:23;;;;;;;6.63;1.75;;;;;;;11.25;63.37;98684.59;4919683;28;20046;-76
2021/09/03 05:53:49;;;;;;;2.90;1.70;;;;;;;11.52;63.53;98674.22;4956891;28;20101;-76
2021/09/03 05:56:15;;;;;;;4.20;1.90;;;;;;;12.02;62.81;98681.38;4953973;28;20045;-76
2021/09/03 05:58:41;;;;;;;3.13;1.23;;;;;;;12.52;62.74;98676.25;4975812;28;20411;-75
2021/09/03 06:01:06;;;;;;;3.78;1.90;;;;;;;13.31;62.38;98665.59;4969775;28;20046;-75
2021/09/03 06:03:32;;;;;;;4.20;1.60;;;;;;;14.88;62.86;98639.97;4943429;28;20077;-75
2021/09/03 06:05:58;;;;;;;2.30;1.15;;;;;;;16.65;61.03;98633.25;4969453;28;20707;-76
2021/09/03 06:08:24;;;;;;;2.33;1.30;;;;;;;18.60;56.93;98645.22;4968350;28;20078;-77
2021/09/03 06:10:49;;;;;;;3.90;1.30;;;;;;;19.35;53.61;98630.97;4951829;28;20034;-76
2021/09/03 06:13:15;;;;;;;2.63;1.30;;;;;;;19.37;50.70;98597.44;4957202;28;20503;-73
2021/09/03 06:15:41;;;;;;;4.25;1.58;;;;;;;19.31;49.28;98603.97;4953510;28;20054;-77
2021/09/03 06:18:06;;;;;;;2.60;1.40;;;;;;;19.37;48.15;98624.69;4953657;28;20461;-78
2021/09/03 06:20:32;;;;;;;2.65;1.40;;;;;;;19.33;47.68;98598.56;4957716;28;20137;-76
2021/09/03 06:22:58;;;;;;;2.58;1.50;;;;;;;20.13;46.16;98606.56;4968832;28;20077;-76
2021/09/03 06:25:24;;;;;;;2.67;1.25;;;;;;;20.56;45.06;98600.13;4962246;28;20589;-76
2021/09/03 06:27:49;;;;;;;5.47;1.45;;;;;;;20.62;44.01;98538.09;4974298;28;20042;-76
2021/09/03 06:30:18;;;;;;;1.25;1.00;;;;;;;21.51;43.03;98585.56;4956976;28;20181;-76
2021/09/03 06:32:44;;;;;;;5.93;1.65;;;;;;;22.53;41.73;98585.03;4969296;28;20050;-75
2021/09/03 06:35:09;;;;;;;4.88;1.25;;;;;;;23.37;39.82;98568.69;4946714;28;20046;-76
2021/09/03 06:37:37;;;;;;;7.47;1.15;;;;;;;24.53;37.49;98571.50;4976686;28;20048;-77
2021/09/03 06:40:04;;;;;;;3.33;1.55;;;;;;;26.01;35.08;98537.97;4974553;28;20046;-74
2021/09/03 06:42:32;;;;;;;4.07;1.60;;;;;;;27.42;32.57;98547.78;4953374;28;20073;-75
2021/09/03 06:45:01;;;;;;;;;;;;;;;28.40;32.14;98539.69;4937400;28;20039;-77
2021/09/03 06:47:28;;;;;;;5.55;1.30;;;;;;;29.12;31.00;98516.25;4969034;28;21283;-77
2021/09/03 06:50:02;;;;;;;3.35;1.30;;;;;;;29.76;28.96;98500.38;4953929;28;20047;-77
2021/09/03 06:52:31;;;;;;;1.50;1.20;;;;;;;30.28;27.00;98522.44;4955456;28;20042;-77
2021/09/03 06:54:59;;;;;;;3.00;1.58;;;;;;;30.55;26.48;98455.09;4988951;28;20054;-77
2021/09/03 06:57:26;;;;;;;5.43;1.40;;;;;;;31.30;24.78;98493.13;4972126;28;20030;-77
2021/09/03 06:59:52;;;;;;;3.78;1.30;;;;;;;32.15;24.58;98458.94;4955456;28;20143;-77
2021/09/03 07:02:19;;;;;;;2.85;1.33;;;;;;;32.98;23.75;98484.84;4938222;28;20034;-76
2021/09/03 07:04:45;;;;;;;1.92;1.45;;;;;;;32.96;23.13;98457.25;4950967;28;20050;-76
2021/09/03 07:07:11;;;;;;;6.22;1.40;;;;;;;33.02;22.25;98457.31;4974942;28;20046;-77
2021/09/03 07:09:59;;;;;;;3.42;1.20;;;;;;;33.34;21.89;98435.44;4966015;28;20042;-77
2021/09/03 07:12:25;;;;;;;1.95;1.10;;;;;;;33.00;21.62;98402.00;4996040;28;20053;-79
2021/09/03 07:14:51;;;;;;;2.33;1.20;;;;;;;33.07;21.64;98466.69;4979502;28;20109;-78
2021/09/03 07:17:17;;;;;;;3.15;1.30;;;;;;;33.81;20.64;98462.81;4967088;28;20042;-77
2021/09/03 07:19:43;;;;;;;3.08;1.08;;;;;;;34.43;19.54;98445.97;4988165;28;20505;-76
2021/09/03 07:22:09;;;;;;;2.63;1.00;;;;;;;34.13;19.92;98430.84;4980085;28;20042;-75
2021/09/03 07:24:38;;;;;;;15.40;1.60;;;;;;;33.74;19.28;98418.75;5001988;28;20042;-79
2021/09/03 07:27:04;;;;;;;4.57;1.35;;;;;;;33.57;18.97;98445.19;4981030;28;20113;-78
2021/09/03 07:29:30;;;;;;;2.20;0.98;;;;;;;33.69;19.26;98429.31;4996629;28;20042;-79
2021/09/03 07:31:56;;;;;;;1.95;1.00;;;;;;;31.49;19.94;98417.41;4977088;28;20550;-79
2021/09/03 07:34:25;;;;;;;6.70;1.20;;;;;;;29.22;21.86;98414.34;4995949;28;20076;-76
2021/09/03 07:36:51;;;;;;;3.05;1.27;;;;;;;28.86;22.53;98378.00;4994804;28;20052;-76
2021/09/03 07:39:21;;;;;;;4.25;1.00;;;;;;;27.76;22.76;98405.47;4975720;28;20173;-77
2021/09/03 07:41:47;;;;;;;5.13;1.10;;;;;;;26.76;24.49;98428.66;4957097;28;20053;-76
2021/09/03 07:44:16;;;;;;;5.15;1.63;;;;;;;25.73;25.09;98409.19;4996030;28;20183;-77
2021/09/03 07:46:45;;;;;;;3.65;0.90;;;;;;;25.46;26.03;98432.94;4995327;28;20423;-78
2021/09/03 07:49:15;;;;;;;2.35;1.08;;;;;;;24.65;26.70;98380.81;4980637;28;20177;-78
2021/09/03 07:51:47;;;;;;;3.05;1.10;;;;;;;24.95;26.82;98421.56;4977090;28;20100;-76
2021/09/03 07:54:13;;;;;;;4.70;0.98;;;;;;;24.48;27.05;98392.94;4990169;28;20091;-75
2021/09/03 07:56:38;;;;;;;1.90;1.00;;;;;;;23.13;27.74;98397.25;4960715;28;20379;-74
2021/09/03 07:59:04;;;;;;;3.35;1.10;;;;;;;22.04;29.11;98421.00;4995840;28;20553;-74
2021/09/03 08:01:30;;;;;;;2.78;1.00;;;;;;;21.27;31.05;98417.13;4995916;28;20042;-74
2021/09/03 08:03:56;;;;;;;1.55;0.82;;;;;;;21.39;31.17;98406.56;4979722;28;20374;-76
2021/09/03 08:06:22;;;;;;;1.27;0.90;;;;;;;20.79;31.58;98396.00;4994782;28;20041;-75
2021/09/03 08:08:48;;;;;;;2.35;0.90;;;;;;;20.29;31.99;98415.38;4967073;28;20050;-77
2021/09/03 08:11:14;;;;;;;2.47;0.80;;;;;;;19.51;32.94;98370.56;4995365;28;20519;-77
2021/09/03 08:13:40;;;;;;;1.77;1.15;;;;;;;19.25;34.13;98396.91;4977827;28;20038;-76
2021/09/03 08:16:09;;;;;;;3.70;1.08;;;;;;;18.93;34.50;98381.41;4991767;28;20056;-75
2021/09/03 08:18:36;;;;;;;3.03;1.27;;;;;;;18.72;34.92;98382.81;4977636;28;20410;-74
2021/09/03 08:21:02;;;;;;;4.65;1.88;;;;;;;18.39;35.97;98399.84;4974158;28;20042;-74
2021/09/03 08:23:28;;;;;;;2.58;1.20;;;;;;;17.90;36.56;98367.72;4978559;28;20045;-76
2021/09/03 08:25:58;;;;;;;2.85;1.20;;;;;;;17.71;37.28;98395.16;4979846;28;20038;-76
2021/09/03 08:28:27;;;;;;;2.88;1.10;;;;;;;17.16;37.71;98379.09;4996144;28;20037;-78
2021/09/03 08:30:53;;;;;;;1.92;0.70;;;;;;;17.04;38.70;98390.34;4977581;28;20093;-78
2021/09/03 08:33:19;;;;;;;1.35;0.80;;;;;;;16.90;39.15;98403.38;4962212;28;20038;-75
2021/09/03 08:35:48;;;;;;;3.65;1.00;;;;;;;16.61;39.83;98382.25;4993591;28;20085;-76
2021/09/03 08:38:14;;;;;;;2.30;0.90;;;;;;;16.26;40.39;98365.75;4993818;28;20050;-75
2021/09/03 08:40:40;;;;;;;2.17;1.02;;;;;;;16.08;41.65;98380.75;4990167;28;20053;-77
2021/09/03 08:43:07;;;;;;;3.72;1.40;;;;;;;15.91;42.50;98397.38;4989902;28;20050;-77
2021/09/03 08:45:33;;;;;;;6.50;1.30;;;;;;;15.63;43.34;98421.56;4958584;28;20074;-76
2021/09/03 08:47:59;;;;;;;2.90;1.00;;;;;;;15.39;44.50;98414.00;4989560;28;20073;-75
2021/09/03 08:50:25;;;;;;;2.80;0.80;;;;;;;15.01;45.51;98406.28;4980503;28;20126;-77
2021/09/03 08:52:52;;;;;;;1.08;0.80;;;;;;;14.59;46.51;98376.84;4975305;28;20176;-74
2021/09/03 08:55:19;;;;;;;2.47;1.13;;;;;;;13.86;47.83;98310.44;4961769;28;20046;-76
2021/09/03 08:57:54;;;;;;;1.52;1.00;;;;;;;14.24;49.16;98387.19;4973016;28;20043;-75
2021/09/03 09:00:34;;;;;;;2.53;1.00;;;;;;;14.33;50.01;98399.88;4942135;28;20097;-76
2021/09/03 09:03:13;;;;;;;2.53;0.75;;;;;;;14.38;50.63;98403.13;4954734;28;20062;-76
2021/09/03 09:05:59;;;;;;;1.95;1.02;;;;;;;14.44;51.13;98394.13;4961760;28;20127;-76
2021/09/03 09:08:27;;;;;;;1.88;0.90;;;;;;;14.58;51.48;98402.16;4942598;28;20145;-75
2021/09/03 09:11:02;;;;;;;1.00;0.80;;;;;;;14.61;51.32;98398.56;4933631;28;20157;-74
2021/09/03 09:13:35;;;;;;;3.70;1.35;;;;;;;14.38;51.95;98390.03;4956360;28;20046;-75
2021/09/03 09:16:06;;;;;;;2.45;0.95;;;;;;;14.33;52.03;98402.47;4963762;28;20502;-75
2021/09/03 09:18:33;;;;;;;2.08;0.98;;;;;;;14.34;52.66;98403.34;4956511;28;20104;-74
2021/09/03 09:21:29;;;;;;;5.05;1.10;;;;;;;14.17;52.92;98386.63;4928758;28;20046;-75
2021/09/03 09:24:01;;;;;;;6.78;1.52;;;;;;;14.16;52.94;98398.88;4977628;28;20068;-76
2021/09/03 09:26:42;;;;;;;7.40;1.13;;;;;;;14.12;53.57;98399.94;4985115;28;20053;-75
2021/09/03 09:29:31;;;;;;;4.10;1.05;;;;;;;14.08;53.63;98385.31;4944311;28;20783;-75
2021/09/03 09:31:57;;;;;;;1.35;0.80;;;;;;;14.17;53.19;98391.88;4966346;28;20034;-75
2021/09/03 09:34:28;;;;;;;3.45;0.90;;;;;;;14.24;53.50;98392.44;4980051;28;20101;-76
2021/09/03 09:36:56;;;;;;;2.08;0.80;;;;;;;14.07;53.12;98367.91;4983510;28;20045;-75
2021/09/03 09:39:24;;;;;;;1.92;0.90;;;;;;;14.08;53.31;98369.59;4947511;28;20093;-77
2021/09/03 09:42:01;;;;;;;4.32;1.00;;;;;;;14.15;53.33;98371.03;4958119;28;20038;-77
2021/09/03 09:44:33;;;;;;;3.35;1.20;;;;;;;14.35;53.42;98384.94;4980281;28;20141;-75
2021/09/03 09:47:07;;;;;;;3.60;1.10;;;;;;;14.34;53.58;98367.56;4956914;28;20049;-77
2021/09/03 09:49:34;;;;;;;1.83;0.82;;;;;;;14.33;53.41;98370.25;4956942;28;20050;-77
2021/09/03 09:52:00;;;;;;;4.93;2.05;;;;;;;14.12;53.16;98358.09;4957300;28;20089;-74
2021/09/03 09:54:27;;;;;;;3.05;0.90;;;;;;;13.96;53.73;98354.50;4966729;28;20417;-77
2021/09/03 09:57:00;;;;;;;3.60;0.80;;;;;;;14.03;54.23;98370.75;4990728;28;20038;-78
2021/09/03 09:59:29;;;;;;;1.70;0.90;;;;;;;14.09;54.16;98363.47;4996318;28;20042;-76
2021/09/03 10:01:58;;;;;;;4.35;1.10;;;;;;;14.11;54.29;98373.88;4993857;28;20446;-77
2021/09/03 10:04:26;;;;;;;4.72;0.90;;;;;;;13.99;54.03;98351.75;4979442;28;20042;-77
2021/09/03 10:06:55;;;;;;;2.95;1.38;;;;;;;13.82;54.36;98337.66;4993052;28;20050;-77
2021/09/03 10:09:22;;;;;;;1.90;1.02;;;;;;;13.95;54.65;98345.78;4974901;28;20405;-76
2021/09/03 10:11:53;;;;;;;2.60;1.50;;;;;;;13.98;54.50;98344.81;4972909;28;20055;-79
2021/09/03 10:14:26;;;;;;;3.53;1.30;;;;;;;14.10;54.46;98364.31;4990245;28;20054;-76
2021/09/03 10:16:53;;;;;;;5.68;1.55;;;;;;;13.80;54.48;98346.50;4977695;28;20125;-76
2021/09/03 10:19:43;;;;;;;2.13;1.08;;;;;;;13.69;54.70;98368.72;4996974;28;20522;-75
2021/09/03 10:22:13;;;;;;;6.43;1.13;;;;;;;13.52;55.02;98366.00;4971618;28;20046;-76
2021/09/03 10:24:45;;;;;;;1.70;1.37;;;;;;;13.41;55.22;98371.69;4973207;28;20039;-76
2021/09/03 10:27:13;;;;;;;1.70;1.00;;;;;;;13.13;55.79;98340.66;4988245;28;20069;-74
2021/09/03 10:29:43;;;;;;;2.65;1.10;;;;;;;13.06;56.08;98340.91;4971784;28;20046;-75
2021/09/03 10:32:21;;;;;;;4.72;1.02;;;;;;;13.19;56.16;98350.88;4972339;28;20070;-77
2021/09/03 10:34:50;;;;;;;4.68;1.67;;;;;;;13.09;56.34;98339.97;4990198;28;20072;-76
2021/09/03 10:37:16;;;;;;;2.22;1.63;;;;;;;13.09;56.72;98353.03;4991572;28;20038;-75
2021/09/03 10:40:06;;;;;;;2.60;1.40;;;;;;;12.99;56.85;98349.06;4990299;28;20071;-76
2021/09/03 10:42:35;;;;;;;4.20;1.35;;;;;;;12.94;57.05;98352.72;4943505;28;20053;-78
2021/09/03 10:45:01;;;;;;;1.63;1.25;;;;;;;12.79;57.39;98348.16;4991639;28;20483;-75
2021/09/03 10:47:30;;;;;;;6.45;1.65;;;;;;;12.70;58.09;98359.81;4992753;28;20045;-75
2021/09/03 10:49:57;;;;;;;2.90;1.40;;;;;;;12.43;58.02;98320.03;4994116;28;20354;-75
2021/09/03 10:52:23;;;;;;;2.05;1.40;;;;;;;12.62;58.51;98339.25;4975978;28;20074;-75
2021/09/03 10:54:49;;;;;;;4.57;1.25;;;;;;;12.66;58.79;98334.75;4971922;28;20070;-76
2021/09/03 10:57:16;;;;;;;4.53;1.70;;;;;;;12.57;59.01;98322.94;4994696;28;20045;-76
2021/09/03 11:00:16;;;;;;;4.88;1.70;;;;;;;12.64;59.25;98333.97;4992212;28;20049;-76
2021/09/03 11:02:42;;;;;;;5.43;1.67;;;;;;;12.59;59.70;98326.31;4999311;28;20038;-77
2021/09/03 11:05:14;;;;;;;3.78;1.50;;;;;;;12.47;60.14;98312.00;4963465;28;20047;-76
2021/09/03 11:07:47;;;;;;;5.93;1.88;;;;;;;12.41;60.67;98312.25;4988834;28;20046;-76
2021/09/03 11:10:21;;;;;;;4.43;1.67;;;;;;;12.51;60.03;98328.38;4992821;28;20070;-76
2021/09/03 11:12:48;;;;;;;3.88;1.80;;;;;;;12.57;60.73;98328.16;4993517;28;20528;-76
2021/09/03 11:15:15;;;;;;;3.00;1.90;;;;;;;12.46;60.70;98320.75;4991818;28;20038;-77
2021/09/03 11:17:44;;;;;;;6.20;2.20;;;;;;;12.53;60.95;98310.91;4980744;28;20046;-76
2021/09/03 11:20:13;;;;;;;3.88;1.98;;;;;;;12.61;61.24;98298.41;4972987;28;20070;-77
2021/09/03 11:22:39;;;;;;;4.78;1.77;;;;;;;12.78;60.90;98305.56;4978338;28;20042;-75
2021/09/03 11:25:07;;;;;;;4.80;2.25;;;;;;;12.76;60.81;98302.16;4985944;28;20038;-77
2021/09/03 11:27:35;;;;;;;6.10;2.60;;;;;;;12.73;60.41;98301.41;4978773;28;20061;-77
2021/09/03 11:30:09;;;;;;;5.20;1.98;;;;;;;12.65;61.01;98288.69;4983349;28;20038;-75
2021/09/03 11:32:37;;;;;;;3.75;2.30;;;;;;;12.63;60.87;98280.94;4990960;28;20065;-76
2021/09/03 11:35:11;;;;;;;4.30;2.42;;;;;;;12.82;60.95;98301.03;4969582;28;20076;-76
2021/09/03 11:37:38;;;;;;;9.82;2.40;;;;;;;12.91;61.05;98287.59;4968918;28;20064;-76